Denver, Colorado
Current Conditions -  °F | °C
As of 11:58 AM on Sunday 23 Nov 2014 (Local Time) from KBKF Reporting Station
Broken Clouds Broken Clouds  
Wind Chill: 35°   Ceiling: 20000
Heat Index: 43°   Visibility: 10mi
Dew Point: 12°   Wind: 17mph
Humidity: 29%   Direction: 10°N
Pressure: 29.77"   Gusts: 24mph
Location:  39.74°N, 104.99°W
Report Text: KBKF 231858Z 01015G21KT 10SM FEW060 SCT100 BKN200 06/M11 A2977 RMK AO2A SLP060 T00591112
Loading
Personal Weather Stations






























Interactive Weather Map New forecast layout! Learn more

10-Day Weather Forecast

Advertisements
Track Severe Weather on mobile